Time;durP1;ratioP1;P1;durP2;ratioP2;P2;SDS_P1;SDS_P2;PMS_P1;PMS_P2;Temp;Humidity;BMP_temperature;BMP_pressure;BME280_temperature;BME280_humidity;BME280_pressure;Samples;Min_cycle;Max_cycle;Signal;HPM_P1;HPM_P2
2021/05/29 00:02:16;;;;;;;;;9.33;8.00;;;;;21.77;40.26;101623.53;5022605;28;45450;-49
2021/05/29 00:04:42;;;;;;;;;7.00;7.00;;;;;21.77;40.51;101626.16;5022502;28;45484;-48
2021/05/29 00:07:07;;;;;;;;;7.33;6.00;;;;;21.76;40.31;101625.31;5037937;28;45472;-51
2021/05/29 00:09:33;;;;;;;;;4.67;4.67;;;;;21.75;40.42;101620.97;5022349;28;45296;-50
2021/05/29 00:11:59;;;;;;;;;7.67;7.33;;;;;21.75;40.09;101620.97;5022401;28;45288;-49
2021/05/29 00:14:24;;;;;;;;;6.33;6.00;;;;;21.76;40.01;101627.09;5022252;28;45284;-50
2021/05/29 00:16:50;;;;;;;;;4.67;4.67;;;;;21.75;40.08;101615.66;5022694;28;45454;-49
2021/05/29 00:19:15;;;;;;;;;10.33;8.33;;;;;21.74;40.15;101607.78;5022194;28;47027;-48
2021/05/29 00:21:41;;;;;;;;;6.33;6.00;;;;;21.74;40.10;101618.34;5037689;28;45567;-46
2021/05/29 00:24:07;;;;;;;;;7.67;7.33;;;;;21.74;40.10;101619.22;5033161;28;45310;-47
2021/05/29 00:26:32;;;;;;;;;10.00;9.00;;;;;21.74;40.11;101618.34;5022361;28;45526;-47
2021/05/29 00:28:58;;;;;;;;;6.67;6.67;;;;;21.74;40.16;101621.00;5021190;28;65713;-49
2021/05/29 00:31:23;;;;;;;;;6.67;6.00;;;;;21.73;40.10;101627.19;5020793;28;46941;-49
2021/05/29 00:33:48;;;;;;;;;8.00;8.00;;;;;21.72;40.59;101621.06;5022132;28;45332;-49
2021/05/29 00:36:14;;;;;;;;;8.33;7.67;;;;;21.71;40.15;101619.31;5022245;28;45439;-47
2021/05/29 00:38:39;;;;;;;;;7.00;7.00;;;;;21.72;40.46;101630.75;5021432;28;60167;-49
2021/05/29 00:41:08;;;;;;;;;7.67;7.67;;;;;21.71;40.37;101621.97;5022109;28;45306;-48
2021/05/29 00:43:34;;;;;;;;;11.33;8.67;;;;;21.72;40.13;101630.75;5020696;28;45265;-46
2021/05/29 00:46:00;;;;;;;;;9.67;9.67;;;;;21.70;40.14;101630.81;5020946;28;45470;-47
2021/05/29 00:48:25;;;;;;;;;7.00;7.00;;;;;21.70;40.16;101625.53;5021795;28;45264;-48
2021/05/29 00:50:58;;;;;;;;;5.00;5.00;;;;;21.70;39.97;101625.53;5020328;28;46076;-46
2021/05/29 00:53:28;;;;;;;;;8.00;8.00;;;;;21.70;39.98;101627.31;5021767;28;45433;-46
2021/05/29 00:55:54;;;;;;;;;8.00;8.00;;;;;21.69;40.40;101629.06;5034248;28;45395;-47
2021/05/29 00:58:21;;;;;;;;;6.33;6.33;;;;;21.69;40.11;101618.50;5035129;28;46111;-51
2021/05/29 01:00:46;;;;;;;;;6.00;6.00;;;;;21.68;40.41;101616.78;5020513;28;45259;-48
2021/05/29 01:03:12;;;;;;;;;7.67;7.00;;;;;21.68;40.42;101608.00;5020523;28;45260;-48
2021/05/29 01:05:37;;;;;;;;;7.00;7.00;;;;;21.67;40.52;101608.94;5020363;28;45485;-47
2021/05/29 01:08:03;;;;;;;;;8.00;8.00;;;;;21.67;40.56;101612.41;5021377;28;45426;-51
2021/05/29 01:10:29;;;;;;;;;8.67;7.00;;;;;21.67;40.30;101612.41;5021739;28;45231;-51
2021/05/29 01:12:57;;;;;;;;;7.00;7.00;;;;;21.67;40.33;101615.06;5020391;28;45859;-50
2021/05/29 01:15:22;;;;;;;;;9.33;7.33;;;;;21.67;40.53;101611.56;5021880;28;45684;-47
2021/05/29 01:17:48;;;;;;;;;8.00;7.00;;;;;21.66;40.43;101604.56;5021234;28;45380;-51
2021/05/29 01:20:14;;;;;;;;;6.67;6.67;;;;;21.65;40.29;101608.97;5020552;28;70524;-49
2021/05/29 01:22:49;;;;;;;;;8.67;7.67;;;;;21.65;40.58;101605.47;5024731;28;45362;-49
2021/05/29 01:25:35;;;;;;;;;7.67;7.33;;;;;21.65;40.37;101605.47;5026938;28;45375;-48
2021/05/29 01:28:07;;;;;;;;;8.67;8.33;;;;;21.65;40.36;101614.25;5040930;28;47103;-47
2021/05/29 01:30:44;;;;;;;;;6.67;6.67;;;;;21.64;40.42;101616.94;5041100;28;45366;-45
2021/05/29 01:33:14;;;;;;;;;4.00;4.00;;;;;21.64;40.43;101617.81;5056747;28;45374;-47
2021/05/29 01:35:41;;;;;;;;;9.33;9.33;;;;;21.64;40.35;101620.44;5039682;28;45485;-47
2021/05/29 01:38:07;;;;;;;;;8.00;8.00;;;;;21.64;40.23;101624.88;5039758;28;46895;-46
2021/05/29 01:40:33;;;;;;;;;7.33;7.00;;;;;21.64;40.46;101622.22;5040387;28;64227;-47
2021/05/29 01:42:59;;;;;;;;;8.00;6.33;;;;;21.62;40.65;101625.78;5041383;28;45305;-46
2021/05/29 01:45:28;;;;;;;;;8.00;7.00;;;;;21.62;40.56;101617.00;5041296;28;45522;-48
2021/05/29 01:47:54;;;;;;;;;6.33;6.00;;;;;21.62;40.66;101623.16;5040663;28;47042;-49
2021/05/29 01:50:20;;;;;;;;;8.67;7.00;;;;;21.61;40.68;101623.22;5056426;28;45616;-50
2021/05/29 01:52:54;;;;;;;;;7.33;6.33;;;;;21.61;40.31;101620.56;5039634;28;45396;-51
2021/05/29 01:55:22;;;;;;;;;7.00;7.00;;;;;21.60;40.53;101624.13;5036270;28;45453;-45
2021/05/29 01:57:49;;;;;;;;;12.00;10.00;;;;;21.60;40.48;101622.34;5019095;28;46209;-47
2021/05/29 02:00:16;;;;;;;;;7.67;7.67;;;;;21.60;40.32;101624.13;5020691;28;45486;-47
2021/05/29 02:02:41;;;;;;;;;7.67;7.67;;;;;21.60;40.58;101622.34;5033056;28;45502;-47
2021/05/29 02:05:16;;;;;;;;;8.67;7.67;;;;;21.60;40.65;101624.13;5019824;28;45432;-48
2021/05/29 02:07:42;;;;;;;;;7.67;7.67;;;;;21.58;40.78;101624.13;5032553;28;47335;-48
2021/05/29 02:10:10;;;;;;;;;8.00;8.00;;;;;21.59;40.59;101628.50;5032715;28;45360;-49
2021/05/29 02:12:37;;;;;;;;;9.67;8.00;;;;;21.60;40.79;101618.84;5043111;28;45276;-50
2021/05/29 02:15:03;;;;;;;;;8.00;8.00;;;;;21.58;40.77;101626.78;5044373;28;45326;-47
2021/05/29 02:17:28;;;;;;;;;10.33;9.00;;;;;21.58;40.54;101625.91;5043828;28;45472;-47
2021/05/29 02:19:54;;;;;;;;;9.00;7.67;;;;;21.57;40.42;101622.41;5043454;28;65050;-50
2021/05/29 02:22:19;;;;;;;;;6.67;6.67;;;;;21.58;40.44;101626.78;5043089;28;62479;-47
2021/05/29 02:24:44;;;;;;;;;9.00;8.00;;;;;21.57;40.79;101622.41;5033322;28;61777;-49
2021/05/29 02:27:10;;;;;;;;;9.00;8.00;;;;;21.57;40.58;101630.31;5023315;28;63849;-45
2021/05/29 02:29:35;;;;;;;;;7.00;7.00;;;;;21.57;40.39;101625.03;5022150;28;60739;-49
2021/05/29 02:32:00;;;;;;;;;9.00;7.33;;;;;21.56;40.72;101628.59;5023990;28;47175;-45
2021/05/29 02:34:26;;;;;;;;;7.67;7.67;;;;;21.57;40.88;101626.84;5023538;28;59222;-48
2021/05/29 02:36:51;;;;;;;;;7.67;7.67;;;;;21.56;40.84;101636.50;5021725;28;62926;-46
2021/05/29 02:39:16;;;;;;;;;8.00;8.00;;;;;21.55;40.56;101629.53;5028314;28;65188;-48
2021/05/29 02:41:42;;;;;;;;;8.67;7.33;;;;;21.55;40.85;101640.09;5040251;28;45489;-45
2021/05/29 02:44:07;;;;;;;;;11.33;8.00;;;;;21.56;40.58;101640.94;5044037;28;45190;-50
2021/05/29 02:46:32;;;;;;;;;7.00;6.00;;;;;21.54;40.51;101635.72;5043519;28;45333;-46
2021/05/29 02:48:58;;;;;;;;;7.00;7.00;;;;;21.54;40.91;101641.00;5043220;28;56919;-49
2021/05/29 02:51:23;;;;;;;;;7.00;7.00;;;;;21.54;40.93;101630.44;5043361;28;48174;-48
2021/05/29 02:53:48;;;;;;;;;6.00;6.00;;;;;21.54;40.91;101632.22;5041989;28;54041;-50
2021/05/29 02:56:14;;;;;;;;;6.67;6.00;;;;;21.55;40.52;101636.59;5039283;28;67904;-47
2021/05/29 02:58:39;;;;;;;;;12.00;8.67;;;;;21.53;41.00;101636.66;5033821;28;64110;-46
2021/05/29 03:01:04;;;;;;;;;9.00;9.00;;;;;21.55;40.84;101644.50;5023223;28;51531;-46
2021/05/29 03:03:30;;;;;;;;;9.67;7.67;;;;;21.54;40.95;101637.50;5022577;28;45436;-46
2021/05/29 03:05:55;;;;;;;;;8.00;7.00;;;;;21.53;41.09;101639.28;5023149;28;45286;-47
2021/05/29 03:08:20;;;;;;;;;9.00;7.00;;;;;21.53;40.94;101627.84;5023728;28;45200;-46
2021/05/29 03:10:46;;;;;;;;;9.67;8.00;;;;;21.53;40.56;101633.13;5018932;28;45411;-48
2021/05/29 03:13:12;;;;;;;;;10.00;10.00;;;;;21.53;40.91;101638.41;5027748;28;45466;-51
2021/05/29 03:15:38;;;;;;;;;9.00;9.00;;;;;21.53;40.89;101635.75;5038387;28;46377;-47
2021/05/29 03:18:05;;;;;;;;;8.33;8.33;;;;;21.52;40.65;101639.31;5043070;28;45412;-46
2021/05/29 03:20:32;;;;;;;;;9.67;8.67;;;;;21.53;40.64;101646.31;5042515;28;45311;-47
2021/05/29 03:22:57;;;;;;;;;8.67;8.67;;;;;21.51;40.80;101637.59;5043305;28;45463;-49
2021/05/29 03:25:23;;;;;;;;;9.00;8.00;;;;;21.52;40.74;101653.41;5027523;28;45280;-46
2021/05/29 03:27:50;;;;;;;;;9.33;9.00;;;;;21.52;40.80;101647.25;5021725;28;45299;-48
2021/05/29 03:30:18;;;;;;;;;7.67;7.67;;;;;21.50;41.03;101652.59;5022072;28;45236;-49
2021/05/29 03:32:43;;;;;;;;;7.67;7.00;;;;;21.51;41.03;101651.69;5023322;28;45498;-50
2021/05/29 03:35:10;;;;;;;;;8.33;8.00;;;;;21.51;40.89;101648.16;5022893;28;45275;-49
2021/05/29 03:37:36;;;;;;;;;7.00;7.00;;;;;21.50;40.70;101642.03;5021513;28;45321;-52
2021/05/29 03:40:02;;;;;;;;;7.33;7.33;;;;;21.51;40.89;101656.06;5021846;28;45451;-46
2021/05/29 03:42:28;;;;;;;;;9.67;7.67;;;;;21.51;41.04;101653.44;5022116;28;45308;-48
2021/05/29 03:44:53;;;;;;;;;7.00;7.00;;;;;21.50;40.60;101655.22;5021494;28;45783;-47
2021/05/29 03:47:18;;;;;;;;;9.00;8.00;;;;;21.50;40.91;101652.59;5022996;28;45158;-47
2021/05/29 03:49:44;;;;;;;;;9.00;8.00;;;;;21.49;40.54;101650.84;5021755;28;45265;-47
2021/05/29 03:52:10;;;;;;;;;7.67;7.00;;;;;21.50;40.98;101643.78;5023033;28;45223;-51
2021/05/29 03:54:36;;;;;;;;;9.00;7.67;;;;;21.48;40.76;101649.97;5024861;28;45593;-50
2021/05/29 03:57:01;;;;;;;;;9.00;9.00;;;;;21.49;40.77;101653.50;5041935;28;58707;-50
2021/05/29 03:59:27;;;;;;;;;11.00;11.00;;;;;21.48;40.60;101651.78;5027163;28;45427;-47
2021/05/29 04:01:52;;;;;;;;;9.67;9.67;;;;;21.48;40.95;101659.69;5021753;28;45611;-46
2021/05/29 04:04:18;;;;;;;;;7.67;7.00;;;;;21.47;40.90;101660.59;5021805;28;65643;-50
2021/05/29 04:06:43;;;;;;;;;7.00;7.00;;;;;21.47;40.68;101664.13;5022176;28;45312;-48
2021/05/29 04:09:09;;;;;;;;;7.00;7.00;;;;;21.47;41.02;101661.47;5034580;28;45327;-51
2021/05/29 04:11:35;;;;;;;;;10.33;10.33;;;;;21.47;41.00;101663.25;5042731;28;45292;-50
2021/05/29 04:14:01;;;;;;;;;9.33;9.33;;;;;21.46;40.83;101666.78;5042541;28;45340;-47
2021/05/29 04:16:27;;;;;;;;;8.00;8.00;;;;;21.47;41.25;101673.81;5040861;28;45368;-51
2021/05/29 04:18:52;;;;;;;;;11.00;9.00;;;;;21.46;40.89;101669.44;5041837;28;58000;-50
2021/05/29 04:21:18;;;;;;;;;9.33;9.33;;;;;21.46;40.80;101672.06;5040756;28;52258;-45
2021/05/29 04:23:43;;;;;;;;;9.33;9.00;;;;;21.45;40.90;101671.22;5040762;28;46241;-49
2021/05/29 04:26:10;;;;;;;;;8.00;7.67;;;;;21.45;41.05;101676.50;5020643;28;45236;-49
2021/05/29 04:28:36;;;;;;;;;12.67;10.33;;;;;21.46;41.10;101677.34;5022448;28;45260;-48
2021/05/29 04:31:02;;;;;;;;;8.67;7.33;;;;;21.45;41.02;101681.78;5021841;28;45533;-48
2021/05/29 04:33:27;;;;;;;;;8.00;8.00;;;;;21.44;40.95;101674.78;5022306;28;45566;-48
2021/05/29 04:35:52;;;;;;;;;7.33;7.33;;;;;21.45;40.85;101676.50;5021405;28;55075;-53
2021/05/29 04:38:18;;;;;;;;;8.00;8.00;;;;;21.45;40.94;101667.72;5032278;28;45278;-47
2021/05/29 04:40:43;;;;;;;;;7.67;7.33;;;;;21.44;41.01;101673.91;5041800;28;50994;-49
2021/05/29 04:43:09;;;;;;;;;7.00;7.00;;;;;21.44;41.06;101671.25;5040092;28;61691;-47
2021/05/29 04:45:34;;;;;;;;;10.00;10.00;;;;;21.44;41.06;101677.41;5041915;28;45352;-48
2021/05/29 04:48:00;;;;;;;;;8.00;7.33;;;;;21.44;40.81;101684.47;5040496;28;45399;-49
2021/05/29 04:50:25;;;;;;;;;8.33;7.33;;;;;21.44;40.82;101680.06;5041946;28;45475;-50
2021/05/29 04:52:50;;;;;;;;;8.33;7.33;;;;;21.45;41.22;101688.84;5041964;28;46214;-46
2021/05/29 04:55:16;;;;;;;;;8.67;8.67;;;;;21.44;41.15;101692.38;5037938;28;62928;-47
2021/05/29 04:57:43;;;;;;;;;8.33;8.00;;;;;21.45;40.80;101692.34;5040562;28;45169;-47
2021/05/29 05:00:11;;;;;;;;;10.00;9.00;;;;;21.45;41.08;101686.19;5021050;28;45228;-46
2021/05/29 05:02:37;;;;;;;;;9.00;9.00;;;;;21.45;40.77;101695.00;5021638;28;46408;-47
2021/05/29 05:05:03;;;;;;;;;9.00;9.00;;;;;21.44;41.09;101693.25;5021621;28;45318;-46
2021/05/29 05:07:28;;;;;;;;;10.33;8.00;;;;;21.45;41.28;101688.84;5021613;28;45381;-47
2021/05/29 05:09:53;;;;;;;;;9.33;9.33;;;;;21.45;40.84;101702.03;5021347;28;54550;-47
2021/05/29 05:12:19;;;;;;;;;9.00;8.33;;;;;21.44;41.07;101695.03;5003728;28;45388;-49
2021/05/29 05:14:44;;;;;;;;;8.00;8.00;;;;;21.44;41.24;101695.03;5024717;28;45763;-46
2021/05/29 05:17:10;;;;;;;;;7.67;7.67;;;;;21.44;40.85;101695.03;5034799;28;45452;-49
2021/05/29 05:19:35;;;;;;;;;10.33;10.33;;;;;21.44;40.95;101695.03;5042077;28;45330;-48
2021/05/29 05:22:01;;;;;;;;;9.00;7.67;;;;;21.44;40.90;101692.38;5041084;28;46108;-51
2021/05/29 05:24:26;;;;;;;;;9.00;9.00;;;;;21.43;41.15;101699.47;5033920;28;45331;-50
2021/05/29 05:26:51;;;;;;;;;9.67;9.67;;;;;21.43;40.92;101699.47;5021464;28;45495;-48
2021/05/29 05:29:17;;;;;;;;;10.33;8.00;;;;;21.43;40.92;101695.94;5021321;28;46709;-51
2021/05/29 05:31:43;;;;;;;;;9.00;8.00;;;;;21.43;41.21;101698.56;5021220;28;45222;-47
2021/05/29 05:34:10;;;;;;;;;9.00;7.33;;;;;21.43;40.91;101699.47;5021364;28;45264;-48
2021/05/29 05:36:37;;;;;;;;;8.67;7.00;;;;;21.43;41.27;101710.03;5021305;28;45387;-46
2021/05/29 05:39:04;;;;;;;;;9.00;9.00;;;;;21.43;41.02;101699.47;5021572;28;45536;-48
2021/05/29 05:41:30;;;;;;;;;9.00;8.67;;;;;21.42;41.23;101703.00;5020881;28;45328;-48
2021/05/29 05:43:55;;;;;;;;;9.00;9.00;;;;;21.43;41.26;101707.38;5023411;28;58167;-50
2021/05/29 05:46:21;;;;;;;;;12.00;9.00;;;;;21.43;41.50;101712.66;5024918;28;45812;-49
2021/05/29 05:48:46;;;;;;;;;8.00;8.00;;;;;21.44;40.98;101714.38;5025092;28;45466;-48
2021/05/29 05:51:12;;;;;;;;;7.33;7.33;;;;;21.43;40.91;101715.31;5023070;28;46894;-50
2021/05/29 05:53:37;;;;;;;;;10.67;10.00;;;;;21.44;40.89;101716.16;5024060;28;61736;-49
2021/05/29 05:56:05;;;;;;;;;8.00;8.00;;;;;21.45;41.28;101712.59;5038874;28;45415;-47
2021/05/29 05:58:36;;;;;;;;;8.00;8.00;;;;;21.45;41.09;101723.16;5035393;28;45343;-50
2021/05/29 06:01:02;;;;;;;;;10.67;9.33;;;;;21.45;41.07;101724.03;5024487;28;45269;-48
2021/05/29 06:03:27;;;;;;;;;6.33;5.67;;;;;21.46;41.23;101724.88;5023275;28;45245;-50
2021/05/29 06:05:53;;;;;;;;;9.67;9.00;;;;;21.46;40.85;101731.06;5023803;28;48608;-49
2021/05/29 06:08:20;;;;;;;;;8.00;7.00;;;;;21.46;41.37;101736.34;5024673;28;45517;-50
2021/05/29 06:10:49;;;;;;;;;8.67;8.67;;;;;21.47;40.84;101742.47;5024420;28;46242;-49
2021/05/29 06:17:56;;;;;;;;;9.00;9.00;;;;;21.47;41.24;101751.25;5024433;28;45315;-47
2021/05/29 06:21:32;;;;;;;;;7.00;7.00;;;;;21.48;41.13;101762.69;5022649;28;45293;-50
2021/05/29 06:23:58;;;;;;;;;7.00;7.00;;;;;21.48;41.10;101767.97;5033999;28;45215;-50
2021/05/29 06:26:23;;;;;;;;;7.67;7.00;;;;;21.48;40.81;101760.88;5024364;28;45402;-49
2021/05/29 06:28:49;;;;;;;;;10.33;10.33;;;;;21.49;40.98;101769.69;5024284;28;45418;-49
2021/05/29 06:31:14;;;;;;;;;9.67;9.67;;;;;21.50;41.21;101762.63;5023385;28;62024;-47
2021/05/29 06:33:39;;;;;;;;;9.00;9.00;;;;;21.50;40.86;101774.06;5023708;28;47078;-48
2021/05/29 06:36:05;;;;;;;;;7.67;7.67;;;;;21.49;41.32;101767.06;5022684;28;45793;-50
2021/05/29 06:38:30;;;;;;;;;11.67;8.67;;;;;21.51;41.05;101774.91;5024171;28;45291;-51
2021/05/29 06:40:56;;;;;;;;;9.00;8.00;;;;;21.51;41.18;101773.16;5023107;28;67085;-48
2021/05/29 06:43:21;;;;;;;;;7.33;7.00;;;;;21.52;40.92;101771.34;5038022;28;45717;-49
2021/05/29 06:45:47;;;;;;;;;8.33;6.00;;;;;21.51;40.89;101767.00;5044017;28;45310;-50
2021/05/29 06:48:14;;;;;;;;;8.00;8.00;;;;;21.52;40.93;101772.25;5043911;28;45635;-49
2021/05/29 06:50:46;;;;;;;;;8.67;8.67;;;;;21.52;41.16;101777.53;5043338;28;45383;-49
2021/05/29 06:53:14;;;;;;;;;7.00;7.00;;;;;21.54;40.97;101780.09;5043439;28;45348;-45
2021/05/29 06:58:41;;;;;;;;;8.00;8.00;;;;;21.54;41.13;101780.09;5023730;28;45418;-49
2021/05/29 07:01:06;;;;;;;;;7.33;7.33;;;;;21.53;41.05;101781.91;5023309;28;45967;-48
2021/05/29 07:03:32;;;;;;;;;7.33;7.33;;;;;21.54;41.16;101783.63;5023621;28;45655;-47
2021/05/29 07:05:57;;;;;;;;;9.67;7.67;;;;;21.55;41.04;101787.13;5035400;28;45744;-46
2021/05/29 07:08:22;;;;;;;;;8.00;8.00;;;;;21.55;41.20;101785.34;5023850;28;45367;-47
2021/05/29 07:10:48;;;;;;;;;8.33;8.33;;;;;21.55;41.02;101781.84;5023529;28;45267;-49
2021/05/29 07:13:13;;;;;;;;;5.00;5.00;;;;;21.56;40.90;101784.41;5023015;28;57926;-49
2021/05/29 07:15:39;;;;;;;;;8.67;8.67;;;;;21.56;41.26;101786.22;5021307;28;64654;-52
2021/05/29 07:18:14;;;;;;;;;6.00;6.00;;;;;21.56;41.13;101789.69;5022348;28;45617;-47
2021/05/29 07:20:40;;;;;;;;;8.67;7.33;;;;;21.57;41.07;101787.94;5022955;28;46184;-51
2021/05/29 07:23:06;;;;;;;;;7.33;7.33;;;;;21.56;41.24;101789.69;5030400;28;45435;-50
2021/05/29 07:25:33;;;;;;;;;7.33;7.00;;;;;21.57;41.19;101787.94;5026382;28;45248;-49
2021/05/29 07:27:58;;;;;;;;;9.00;9.00;;;;;21.56;41.17;101784.41;5023511;28;45276;-48
2021/05/29 07:30:24;;;;;;;;;9.33;8.00;;;;;21.57;40.85;101794.06;5018731;28;47130;-49
2021/05/29 07:32:50;;;;;;;;;8.67;7.00;;;;;21.59;40.80;101789.59;5032158;28;45307;-46
2021/05/29 07:35:16;;;;;;;;;7.67;7.67;;;;;21.58;41.26;101793.16;5024273;28;45276;-49
2021/05/29 07:37:42;;;;;;;;;7.00;7.00;;;;;21.58;40.72;101793.16;5022999;28;45518;-48
2021/05/29 07:40:08;;;;;;;;;10.33;8.00;;;;;21.59;40.87;101800.16;5021294;28;46465;-46
2021/05/29 07:42:34;;;;;;;;;10.33;7.00;;;;;21.59;40.94;101789.59;5022729;28;45352;-51
2021/05/29 07:44:59;;;;;;;;;7.00;7.00;;;;;21.59;41.05;101791.41;5004915;28;45322;-49
2021/05/29 07:47:25;;;;;;;;;7.33;7.33;;;;;21.60;40.89;101801.94;5022607;28;45566;-47
2021/05/29 07:49:50;;;;;;;;;8.00;8.00;;;;;21.60;41.23;101796.66;5022505;28;46223;-47
2021/05/29 07:52:16;;;;;;;;;7.33;7.33;;;;;21.60;41.07;101795.81;5027646;28;45477;-48
2021/05/29 07:54:41;;;;;;;;;9.00;8.00;;;;;21.60;41.24;101794.00;5034988;28;61146;-47
2021/05/29 07:57:09;;;;;;;;;7.33;7.33;;;;;21.60;41.42;101801.09;5041627;28;45200;-47
2021/05/29 07:59:35;;;;;;;;;7.67;7.67;;;;;21.61;41.18;101802.81;5025804;28;46067;-49
2021/05/29 08:02:00;;;;;;;;;8.00;8.00;;;;;21.62;41.68;101808.03;5022623;28;45773;-48
2021/05/29 08:04:26;;;;;;;;;7.00;7.00;;;;;21.61;41.74;101808.94;5022012;28;55830;-48
2021/05/29 08:06:52;;;;;;;;;7.67;7.00;;;;;21.62;41.46;101815.13;5022639;28;45290;-47
2021/05/29 08:09:18;;;;;;;;;7.67;6.33;;;;;21.63;41.57;101811.53;5021102;28;47095;-46
2021/05/29 08:11:43;;;;;;;;;9.00;8.00;;;;;21.64;41.66;101812.41;5024511;28;60622;-51
2021/05/29 08:14:10;;;;;;;;;7.67;7.00;;;;;21.65;41.90;101814.13;5028957;28;45301;-49
2021/05/29 08:16:36;;;;;;;;;7.33;7.33;;;;;21.65;41.82;101817.63;5042353;28;45306;-51
2021/05/29 08:19:02;;;;;;;;;7.67;6.67;;;;;21.65;41.78;101817.63;5057345;28;48284;-49
2021/05/29 08:21:29;;;;;;;;;11.67;10.33;;;;;21.68;41.53;101819.34;5042151;28;45320;-45
2021/05/29 08:23:54;;;;;;;;;7.00;7.00;;;;;21.67;42.11;101815.81;5038550;28;45351;-45
2021/05/29 08:26:20;;;;;;;;;6.67;6.67;;;;;21.70;41.84;101820.16;5031315;28;45223;-51
2021/05/29 08:28:45;;;;;;;;;8.33;8.00;;;;;21.69;42.15;101815.78;5037304;28;46651;-52
2021/05/29 08:31:12;;;;;;;;;8.00;7.67;;;;;21.70;42.00;101820.16;5031853;28;45319;-47
2021/05/29 08:33:39;;;;;;;;;8.00;7.67;;;;;21.71;42.34;101822.72;5041993;28;45304;-50
2021/05/29 08:36:04;;;;;;;;;8.33;8.33;;;;;21.71;42.49;101817.44;5041809;28;45749;-44
2021/05/29 08:38:30;;;;;;;;;8.33;6.00;;;;;21.73;42.37;101820.03;5040518;28;48391;-46
2021/05/29 08:40:55;;;;;;;;;10.67;9.00;;;;;21.73;42.42;101822.66;5057036;28;62369;-45
2021/05/29 08:43:21;;;;;;;;;8.00;8.00;;;;;21.73;42.77;101818.28;5057732;28;45350;-45
2021/05/29 08:45:46;;;;;;;;;10.67;7.00;;;;;21.74;42.81;101820.00;5040699;28;45812;-47
2021/05/29 08:48:12;;;;;;;;;8.00;7.00;;;;;21.74;42.73;101820.00;5040292;28;47121;-47
2021/05/29 08:50:37;;;;;;;;;8.33;8.00;;;;;21.75;43.06;101821.72;5041586;28;45337;-44
2021/05/29 08:53:03;;;;;;;;;8.00;8.00;;;;;21.76;43.17;101817.28;5041622;28;45354;-48
2021/05/29 08:55:29;;;;;;;;;10.00;9.00;;;;;21.76;43.04;101818.19;5038376;28;45374;-51
2021/05/29 08:57:54;;;;;;;;;9.00;9.00;;;;;21.77;42.98;101819.03;5036521;28;62528;-45
2021/05/29 09:00:24;;;;;;;;;8.00;7.00;;;;;21.77;42.83;101822.56;5043161;28;45289;-45
2021/05/29 09:03:00;;;;;;;;;7.00;7.00;;;;;21.78;42.74;101821.59;5034086;28;46070;-60
2021/05/29 09:05:46;;;;;;;;;8.67;8.67;;;;;21.78;42.59;101816.31;5026255;28;45669;-61
2021/05/29 09:08:12;;;;;;;;;9.33;8.33;;;;;21.80;43.05;101823.34;5027972;28;45344;-47
2021/05/29 09:10:43;;;;;;;;;8.00;8.00;;;;;21.81;42.98;101830.34;5024426;28;45761;-64
2021/05/29 09:13:08;;;;;;;;;9.67;9.67;;;;;21.80;42.95;101829.50;5027039;28;45423;-59
2021/05/29 09:15:49;;;;;;;;;7.00;7.00;;;;;21.80;42.51;101834.78;5044305;28;45439;-59
2021/05/29 09:18:33;;;;;;;;;8.67;8.67;;;;;21.82;42.63;101834.72;5028228;28;46376;-59
2021/05/29 09:21:22;;;;;;;;;8.33;7.67;;;;;21.83;42.78;101824.13;5042644;28;45355;-59
2021/05/29 09:23:50;;;;;;;;;9.67;8.00;;;;;21.84;42.77;101824.97;5030979;28;45466;-61
2021/05/29 09:26:16;;;;;;;;;12.33;11.00;;;;;21.84;42.54;101839.06;5029845;28;45501;-60
2021/05/29 09:28:43;;;;;;;;;9.00;7.33;;;;;21.85;42.82;101832.00;5025178;28;46354;-58
2021/05/29 09:31:13;;;;;;;;;10.33;9.00;;;;;21.84;42.63;101833.78;5028926;28;45426;-57
2021/05/29 09:33:38;;;;;;;;;5.67;5.67;;;;;21.86;42.82;101839.00;5025825;28;45457;-59
2021/05/29 09:36:09;;;;;;;;;7.33;7.33;;;;;21.87;42.64;101838.09;5027807;28;45445;-59
2021/05/29 09:38:35;;;;;;;;;8.33;8.33;;;;;21.87;42.76;101833.66;5027328;28;47502;-61
2021/05/29 09:41:00;;;;;;;;;9.33;7.33;;;;;21.87;43.07;101836.31;5030595;28;45446;-61
2021/05/29 09:43:26;;;;;;;;;8.00;8.00;;;;;21.89;42.49;101834.47;5028950;28;45305;-63
2021/05/29 09:46:02;;;;;;;;;8.00;8.00;;;;;21.90;42.24;101830.94;5025668;28;54796;-63
2021/05/29 09:48:29;;;;;;;;;7.33;7.33;;;;;21.90;42.85;101823.00;5019289;28;46231;-63
2021/05/29 09:51:13;;;;;;;;;8.67;8.33;;;;;21.93;42.87;101827.34;5020724;28;45550;-66
2021/05/29 09:53:50;;;;;;;;;7.33;7.33;;;;;21.93;42.74;101830.00;5030880;28;45481;-63
2021/05/29 09:56:38;;;;;;;;;8.67;8.67;;;;;21.93;42.45;101833.47;5025890;28;45380;-62
2021/05/29 09:59:19;;;;;;;;;8.33;8.33;;;;;21.95;42.80;101840.50;5039057;28;45647;-64
2021/05/29 10:01:53;;;;;;;;;7.00;6.00;;;;;21.95;42.62;101838.69;5034707;28;45376;-61
2021/05/29 10:04:28;;;;;;;;;6.00;5.00;;;;;21.96;42.75;101851.00;5044878;28;45762;-52
2021/05/29 10:06:58;;;;;;;;;7.67;7.00;;;;;21.96;42.40;101844.88;5028099;28;45498;-55
2021/05/29 10:09:23;;;;;;;;;7.00;7.00;;;;;21.96;42.23;101835.16;5027839;28;46415;-48
2021/05/29 10:11:49;;;;;;;;;7.33;6.33;;;;;21.96;42.31;101843.06;5036541;28;45261;-46
2021/05/29 10:14:14;;;;;;;;;6.00;5.67;;;;;21.96;42.46;101843.06;5038910;28;45475;-46
2021/05/29 10:16:39;;;;;;;;;13.67;9.00;;;;;21.97;42.55;101841.31;5031645;28;45595;-49
2021/05/29 10:19:07;;;;;;;;;10.00;8.67;;;;;21.97;42.96;101838.66;5031347;28;58318;-48
2021/05/29 10:21:36;;;;;;;;;26.33;24.67;;;;;21.97;42.93;101842.16;5025503;28;45438;-48
2021/05/29 10:24:01;;;;;;;;;42.50;37.50;;;;;21.98;43.36;101843.03;5027410;28;45491;-46
2021/05/29 10:26:28;;;;;;;;;46.00;38.25;;;;;21.99;43.07;101837.69;5020320;28;45426;-47
2021/05/29 10:28:54;;;;;;;;;38.50;34.25;;;;;22.00;43.04;101836.78;5032142;28;45450;-46
2021/05/29 10:31:20;;;;;;;;;28.00;28.00;;;;;22.01;42.74;101845.56;5041226;28;45205;-46
2021/05/29 10:33:46;;;;;;;;;31.50;26.50;;;;;22.02;43.00;101842.00;5034483;28;45315;-47
2021/05/29 10:36:34;;;;;;;;;24.00;24.00;;;;;22.02;42.98;101842.00;5023502;28;45616;-46
2021/05/29 10:39:00;;;;;;;;;26.75;26.00;;;;;22.03;42.70;101843.75;5022266;28;46452;-46
2021/05/29 10:42:00;;;;;;;;;29.75;26.00;;;;;22.02;43.05;101834.97;5023729;28;45329;-49
2021/05/29 10:44:41;;;;;;;;;25.00;23.50;;;;;22.03;43.08;101843.75;5025506;28;46224;-46
2021/05/29 10:47:18;;;;;;;;;23.00;23.00;;;;;22.02;43.14;101840.25;5031650;28;45340;-45
2021/05/29 10:49:47;;;;;;;;;24.50;23.25;;;;;22.03;42.94;101841.09;5023103;28;46043;-45
2021/05/29 10:52:34;;;;;;;;;23.25;21.75;;;;;22.02;43.01;101840.25;5036394;28;45273;-54
2021/05/29 10:55:08;;;;;;;;;24.25;21.75;;;;;22.02;42.71;101853.47;5028803;28;45550;-48
2021/05/29 10:57:55;;;;;;;;;19.33;19.00;;;;;22.03;43.20;101844.63;5025821;28;45397;-48
2021/05/29 11:00:36;;;;;;;;;19.33;19.33;;;;;22.02;42.65;101845.53;5035348;28;47254;-49
2021/05/29 11:03:20;;;;;;;;;20.33;20.00;;;;;22.03;42.65;101843.75;5043108;28;45597;-49
2021/05/29 11:05:51;;;;;;;;;20.00;19.67;;;;;22.02;42.55;101844.66;5028784;28;45465;-52
2021/05/29 11:08:44;;;;;;;;;19.00;19.00;;;;;22.02;42.68;101842.00;5035447;28;45433;-48
2021/05/29 11:14:09;;;;;;;;;15.67;15.67;;;;;22.02;42.79;101834.09;5022743;28;45419;-50
2021/05/29 11:16:57;;;;;;;;;18.33;17.00;;;;;22.02;42.55;101842.00;5030072;28;45416;-46
2021/05/29 11:19:35;;;;;;;;;18.67;18.33;;;;;22.02;42.57;101839.38;5028622;28;45343;-49
2021/05/29 11:22:14;;;;;;;;;19.67;18.33;;;;;22.02;42.48;101836.72;5050636;28;45473;-47
2021/05/29 11:24:43;;;;;;;;;16.33;15.67;;;;;22.01;42.61;101835.88;5012871;28;45487;-50
2021/05/29 11:27:30;;;;;;;;;18.67;16.33;;;;;22.01;42.57;101843.81;5032468;28;45420;-49
2021/05/29 11:29:57;;;;;;;;;17.00;16.00;;;;;22.02;42.57;101839.38;5022346;28;45431;-50
2021/05/29 11:35:37;;;;;;;;;13.00;13.00;;;;;22.02;42.29;101834.09;5022230;28;45319;-47
2021/05/29 11:38:37;;;;;;;;;16.67;16.67;;;;;22.01;42.12;101827.94;5021570;28;45282;-45
2021/05/29 11:41:11;;;;;;;;;18.00;16.33;;;;;22.01;42.24;101833.22;5009433;28;45340;-48